sensor_id;sensor_type;location;lat;lon;timestamp;temperature;humidity
13346;DHT22;6742;48.036;15.780;2022-07-05T00:01:21;20.40;99.90
13346;DHT22;6742;48.036;15.780;2022-07-05T00:03:48;20.40;99.90
13346;DHT22;6742;48.036;15.780;2022-07-05T00:06:15;20.40;99.90
13346;DHT22;6742;48.036;15.780;2022-07-05T00:16:09;20.40;99.90
13346;DHT22;6742;48.036;15.780;2022-07-05T00:18:36;20.30;99.90
13346;DHT22;6742;48.036;15.780;2022-07-05T00:21:03;20.30;99.90
13346;DHT22;6742;48.036;15.780;2022-07-05T00:25:58;20.20;99.90
13346;DHT22;6742;48.036;15.780;2022-07-05T00:28:25;20.20;99.90
13346;DHT22;6742;48.036;15.780;2022-07-05T00:30:52;20.20;99.90
13346;DHT22;6742;48.036;15.780;2022-07-05T00:35:51;20.20;99.90
13346;DHT22;6742;48.036;15.780;2022-07-05T00:38:18;20.20;99.90
13346;DHT22;6742;48.036;15.780;2022-07-05T00:43:17;20.20;99.90
13346;DHT22;6742;48.036;15.780;2022-07-05T00:45:45;20.20;99.90
13346;DHT22;6742;48.036;15.780;2022-07-05T00:50:40;20.30;99.90
13346;DHT22;6742;48.036;15.780;2022-07-05T00:53:09;20.30;99.90
13346;DHT22;6742;48.036;15.780;2022-07-05T00:58:09;20.30;99.90
13346;DHT22;6742;48.036;15.780;2022-07-05T01:00:36;20.30;99.90
13346;DHT22;6742;48.036;15.780;2022-07-05T01:10:30;20.20;99.90
13346;DHT22;6742;48.036;15.780;2022-07-05T01:17:53;20.20;99.90
13346;DHT22;6742;48.036;15.780;2022-07-05T01:20:21;20.20;99.90
13346;DHT22;6742;48.036;15.780;2022-07-05T01:22:51;20.20;99.90
13346;DHT22;6742;48.036;15.780;2022-07-05T01:25:20;20.20;99.90
13346;DHT22;6742;48.036;15.780;2022-07-05T01:30:15;20.20;99.90
13346;DHT22;6742;48.036;15.780;2022-07-05T01:35:11;20.20;99.90
13346;DHT22;6742;48.036;15.780;2022-07-05T01:37:39;20.20;99.90
13346;DHT22;6742;48.036;15.780;2022-07-05T01:40:08;20.20;99.90
13346;DHT22;6742;48.036;15.780;2022-07-05T01:55:04;20.10;99.90
13346;DHT22;6742;48.036;15.780;2022-07-05T01:57:33;20.10;99.90
13346;DHT22;6742;48.036;15.780;2022-07-05T02:00:00;20.10;99.90
13346;DHT22;6742;48.036;15.780;2022-07-05T02:02:27;20.10;99.90
13346;DHT22;6742;48.036;15.780;2022-07-05T02:04:54;20.00;99.90
13346;DHT22;6742;48.036;15.780;2022-07-05T02:07:21;20.00;99.90
13346;DHT22;6742;48.036;15.780;2022-07-05T02:12:16;20.00;99.90
13346;DHT22;6742;48.036;15.780;2022-07-05T02:14:44;20.00;99.90
13346;DHT22;6742;48.036;15.780;2022-07-05T02:22:07;19.90;99.90
13346;DHT22;6742;48.036;15.780;2022-07-05T02:24:34;19.80;99.90
13346;DHT22;6742;48.036;15.780;2022-07-05T02:27:01;19.80;99.90
13346;DHT22;6742;48.036;15.780;2022-07-05T02:29:28;19.80;99.90
13346;DHT22;6742;48.036;15.780;2022-07-05T02:31:57;19.80;99.90
13346;DHT22;6742;48.036;15.780;2022-07-05T02:34:23;19.80;99.90
13346;DHT22;6742;48.036;15.780;2022-07-05T02:36:51;19.80;99.90
13346;DHT22;6742;48.036;15.780;2022-07-05T02:39:18;19.80;99.90
13346;DHT22;6742;48.036;15.780;2022-07-05T02:41:45;19.80;99.90
13346;DHT22;6742;48.036;15.780;2022-07-05T02:44:15;19.80;99.90
13346;DHT22;6742;48.036;15.780;2022-07-05T02:46:42;19.80;99.90
13346;DHT22;6742;48.036;15.780;2022-07-05T02:49:11;19.70;99.90
13346;DHT22;6742;48.036;15.780;2022-07-05T02:51:38;19.70;99.90
13346;DHT22;6742;48.036;15.780;2022-07-05T02:54:05;19.80;99.90
13346;DHT22;6742;48.036;15.780;2022-07-05T02:56:32;19.80;99.90
13346;DHT22;6742;48.036;15.780;2022-07-05T02:58:59;19.70;99.90
13346;DHT22;6742;48.036;15.780;2022-07-05T03:01:26;19.80;99.90
13346;DHT22;6742;48.036;15.780;2022-07-05T03:03:53;19.80;99.90
13346;DHT22;6742;48.036;15.780;2022-07-05T03:06:22;19.80;99.90
13346;DHT22;6742;48.036;15.780;2022-07-05T03:08:52;19.80;99.90
13346;DHT22;6742;48.036;15.780;2022-07-05T03:13:47;19.80;99.90
13346;DHT22;6742;48.036;15.780;2022-07-05T03:16:14;19.80;99.90
13346;DHT22;6742;48.036;15.780;2022-07-05T03:18:41;19.80;99.90
13346;DHT22;6742;48.036;15.780;2022-07-05T03:21:08;19.80;99.90
13346;DHT22;6742;48.036;15.780;2022-07-05T03:23:36;19.80;99.90
13346;DHT22;6742;48.036;15.780;2022-07-05T03:26:04;19.80;99.90
13346;DHT22;6742;48.036;15.780;2022-07-05T03:28:31;19.70;99.90
13346;DHT22;6742;48.036;15.780;2022-07-05T03:31:01;19.70;99.90
13346;DHT22;6742;48.036;15.780;2022-07-05T03:33:31;19.60;99.90
13346;DHT22;6742;48.036;15.780;2022-07-05T06:38:50;19.30;99.90
13346;DHT22;6742;48.036;15.780;2022-07-05T06:41:17;19.20;99.90
13346;DHT22;6742;48.036;15.780;2022-07-05T06:51:31;19.10;99.90
13346;DHT22;6742;48.036;15.780;2022-07-05T06:56:35;19.20;99.90
13346;DHT22;6742;48.036;15.780;2022-07-05T06:59:02;19.20;99.90
13346;DHT22;6742;48.036;15.780;2022-07-05T07:01:29;19.20;99.90
13346;DHT22;6742;48.036;15.780;2022-07-05T07:03:56;19.20;99.90
13346;DHT22;6742;48.036;15.780;2022-07-05T07:06:29;19.20;99.90
13346;DHT22;6742;48.036;15.780;2022-07-05T07:09:09;19.10;99.90
13346;DHT22;6742;48.036;15.780;2022-07-05T07:14:24;19.10;99.90
13346;DHT22;6742;48.036;15.780;2022-07-05T07:16:51;19.10;99.90
13346;DHT22;6742;48.036;15.780;2022-07-05T07:19:18;19.10;99.90
13346;DHT22;6742;48.036;15.780;2022-07-05T07:21:46;19.00;99.90
13346;DHT22;6742;48.036;15.780;2022-07-05T07:24:13;19.00;99.90
13346;DHT22;6742;48.036;15.780;2022-07-05T07:26:40;19.00;99.90
13346;DHT22;6742;48.036;15.780;2022-07-05T07:29:26;19.10;99.90
13346;DHT22;6742;48.036;15.780;2022-07-05T07:34:29;19.10;99.90
13346;DHT22;6742;48.036;15.780;2022-07-05T07:36:56;19.00;99.90
13346;DHT22;6742;48.036;15.780;2022-07-05T07:39:24;18.90;99.90
13346;DHT22;6742;48.036;15.780;2022-07-05T07:41:52;18.90;99.90
13346;DHT22;6742;48.036;15.780;2022-07-05T07:44:22;18.90;99.90
13346;DHT22;6742;48.036;15.780;2022-07-05T07:46:50;18.80;99.90
13346;DHT22;6742;48.036;15.780;2022-07-05T07:49:17;18.80;99.90
13346;DHT22;6742;48.036;15.780;2022-07-05T07:51:44;18.80;99.90
13346;DHT22;6742;48.036;15.780;2022-07-05T07:56:47;18.90;99.90
13346;DHT22;6742;48.036;15.780;2022-07-05T07:59:14;19.00;99.90
13346;DHT22;6742;48.036;15.780;2022-07-05T08:01:41;18.90;99.90
13346;DHT22;6742;48.036;15.780;2022-07-05T08:04:09;18.90;99.90
13346;DHT22;6742;48.036;15.780;2022-07-05T08:06:37;18.80;99.90
13346;DHT22;6742;48.036;15.780;2022-07-05T08:09:04;18.70;99.90
13346;DHT22;6742;48.036;15.780;2022-07-05T08:11:31;18.70;99.90
13346;DHT22;6742;48.036;15.780;2022-07-05T13:11:09;20.30;99.90
13346;DHT22;6742;48.036;15.780;2022-07-05T13:21:23;20.40;99.90
13346;DHT22;6742;48.036;15.780;2022-07-05T15:26:23;21.80;99.90
13346;DHT22;6742;48.036;15.780;2022-07-05T15:28:50;21.80;99.90
13346;DHT22;6742;48.036;15.780;2022-07-05T16:17:56;21.40;99.90
13346;DHT22;6742;48.036;15.780;2022-07-05T18:14:12;21.00;99.90
13346;DHT22;6742;48.036;15.780;2022-07-05T18:16:39;21.00;99.90
